Time;durP1;ratioP1;P1;durP2;ratioP2;P2;SDS_P1;SDS_P2;PMS_P1;PMS_P2;Temp;Humidity;BMP_temperature;BMP_pressure;BME280_temperature;BME280_humidity;BME280_pressure;Samples;Min_cycle;Max_cycle;Signal;HPM_P1;HPM_P2
2021/12/21 00:01:01;;;;;;;3.53;1.80;;;-13.50;85.20;;;;;;5053478;28;20101;-78
2021/12/21 00:03:27;;;;;;;3.92;2.28;;;-13.50;85.70;;;;;;5053646;28;20056;-78
2021/12/21 00:05:54;;;;;;;2.85;2.63;;;-13.40;86.50;;;;;;5053443;28;20384;-78
2021/12/21 00:08:20;;;;;;;2.70;1.92;;;-13.40;86.10;;;;;;5050277;28;20025;-80
2021/12/21 00:10:47;;;;;;;2.88;2.10;;;-13.40;85.30;;;;;;5053565;28;20045;-79
2021/12/21 00:17:09;;;;;;;2.03;1.80;;;-13.50;85.30;;;;;;5053315;28;20494;-80
2021/12/21 00:23:54;;;;;;;4.25;2.80;;;-13.60;85.10;;;;;;5041342;28;20021;-79
2021/12/21 00:26:21;;;;;;;2.60;1.67;;;-13.60;85.10;;;;;;5042689;28;20021;-79
2021/12/21 00:28:59;;;;;;;5.00;1.77;;;-13.70;85.20;;;;;;5040909;28;20551;-79
2021/12/21 00:31:29;;;;;;;2.88;1.73;;;-13.70;85.10;;;;;;5041154;28;20485;-79
2021/12/21 00:33:55;;;;;;;2.80;2.60;;;-13.70;85.40;;;;;;5038385;28;20017;-78
2021/12/21 00:36:23;;;;;;;1.93;1.43;;;-13.70;86.00;;;;;;5041946;28;20074;-80
2021/12/21 00:38:51;;;;;;;1.15;1.13;;;-13.60;85.60;;;;;;5046441;28;20100;-78
2021/12/21 00:41:17;;;;;;;2.17;1.98;;;-13.70;85.00;;;;;;5044000;28;20028;-79
2021/12/21 00:43:44;;;;;;;3.72;2.75;;;-13.70;84.60;;;;;;5051446;28;20021;-80
2021/12/21 00:46:10;;;;;;;4.05;1.58;;;-13.70;84.80;;;;;;5046365;28;20121;-80
2021/12/21 00:48:37;;;;;;;2.23;1.53;;;-13.70;85.00;;;;;;5049731;28;20060;-78
2021/12/21 00:51:06;;;;;;;1.63;1.52;;;-13.70;84.00;;;;;;5042966;28;20446;-79
2021/12/21 00:53:35;;;;;;;3.90;1.38;;;-13.80;84.30;;;;;;5047276;28;20048;-80
2021/12/21 00:56:01;;;;;;;3.22;2.28;;;-13.80;84.20;;;;;;5053116;28;20425;-80
2021/12/21 00:58:26;;;;;;;1.80;1.33;;;-13.80;84.50;;;;;;5052487;28;20021;-78
2021/12/21 01:00:52;;;;;;;2.03;1.50;;;-13.80;84.50;;;;;;5053884;28;20367;-78
2021/12/21 01:03:19;;;;;;;1.23;1.15;;;-13.90;84.10;;;;;;5056526;28;20027;-80
2021/12/21 01:05:53;;;;;;;2.42;1.88;;;-13.90;84.30;;;;;;5047895;28;20426;-78
2021/12/21 01:08:24;;;;;;;2.72;2.42;;;-13.80;83.90;;;;;;5056243;28;20063;-77
2021/12/21 01:11:09;;;;;;;3.67;2.20;;;-13.90;83.40;;;;;;5052102;28;20068;-80
2021/12/21 01:14:36;;;;;;;2.00;1.57;;;-13.90;84.10;;;;;;5047596;28;20116;-80
2021/12/21 01:16:39;;;;;;;3.22;2.10;;;-13.90;84.40;;;;;;5056753;28;20065;-78
2021/12/21 01:21:43;;;;;;;7.47;2.95;;;-13.80;84.00;;;;;;5056358;28;20021;-80
2021/12/21 01:24:25;;;;;;;3.90;1.90;;;-13.80;84.10;;;;;;5056140;28;20029;-78
2021/12/21 01:27:34;;;;;;;3.08;1.75;;;-13.80;84.50;;;;;;5071022;28;20083;-78
2021/12/21 01:35:20;;;;;;;1.95;1.63;;;-13.60;85.10;;;;;;5045461;28;20031;-80
2021/12/21 01:50:56;;;;;;;1.65;1.55;;;-13.70;82.80;;;;;;5055546;28;20091;-78
2021/12/21 01:53:22;;;;;;;2.97;2.10;;;-13.80;82.00;;;;;;5050681;28;20021;-78
2021/12/21 01:55:48;;;;;;;2.77;2.33;;;-13.90;81.90;;;;;;5051063;28;20515;-80
2021/12/21 01:58:14;;;;;;;2.65;2.13;;;-13.90;82.40;;;;;;5058344;28;20021;-78
2021/12/21 02:00:40;;;;;;;2.67;2.07;;;-14.00;82.30;;;;;;5056827;28;20025;-80
2021/12/21 02:03:07;;;;;;;3.03;2.63;;;-14.00;82.40;;;;;;5055552;28;20025;-78
2021/12/21 02:05:33;;;;;;;2.25;2.05;;;-14.00;82.50;;;;;;5056117;28;20486;-78
2021/12/21 02:07:59;;;;;;;6.80;1.53;;;-14.10;82.20;;;;;;5051905;28;20025;-78
2021/12/21 02:10:25;;;;;;;3.08;2.22;;;-14.10;82.70;;;;;;5055425;28;20040;-79
2021/12/21 02:12:51;;;;;;;6.30;2.87;;;-14.10;83.40;;;;;;5042319;28;20021;-79
2021/12/21 02:15:17;;;;;;;3.43;2.03;;;-14.10;83.10;;;;;;5054428;28;20013;-80
2021/12/21 02:23:06;;;;;;;2.22;1.60;;;-14.10;83.70;;;;;;5054746;28;20112;-80
2021/12/21 02:30:51;;;;;;;1.83;1.60;;;-14.10;83.40;;;;;;5043995;28;20095;-78
2021/12/21 02:33:17;;;;;;;2.03;1.25;;;-14.10;84.10;;;;;;5054385;28;20102;-79
2021/12/21 02:35:43;;;;;;;1.52;1.42;;;-14.10;84.70;;;;;;5054694;28;20031;-80
2021/12/21 02:38:10;;;;;;;2.55;1.75;;;-14.00;84.70;;;;;;5054535;28;20032;-77
2021/12/21 02:40:37;;;;;;;1.70;1.30;;;-14.00;83.80;;;;;;5054554;28;20024;-80
2021/12/21 02:43:04;;;;;;;;;;;-14.00;83.60;;;;;;5054779;28;20414;-77
2021/12/21 02:45:29;;;;;;;3.45;2.13;;;-14.00;83.70;;;;;;5054254;28;19912;-78
2021/12/21 02:47:55;;;;;;;1.10;0.95;;;-14.00;83.40;;;;;;5048344;28;20106;-79
2021/12/21 02:50:21;;;;;;;2.00;1.50;;;-14.00;83.10;;;;;;5054291;28;20032;-78
2021/12/21 02:52:47;;;;;;;3.73;2.80;;;-14.00;82.90;;;;;;5054516;28;20395;-78
2021/12/21 02:55:14;;;;;;;2.53;1.55;;;-14.10;82.80;;;;;;5054294;28;20100;-78
2021/12/21 02:57:40;;;;;;;2.80;1.83;;;-14.10;82.20;;;;;;5054447;28;20373;-79
2021/12/21 03:00:08;;;;;;;1.77;1.65;;;-14.10;82.30;;;;;;5053897;28;20025;-79
2021/12/21 03:02:34;;;;;;;1.80;1.67;;;-14.10;81.90;;;;;;5054257;28;20028;-77
2021/12/21 03:05:00;;;;;;;1.63;1.13;;;-14.20;82.10;;;;;;5054087;28;20049;-79
2021/12/21 03:10:14;;;;;;;2.17;1.70;;;-14.20;82.80;;;;;;5039837;28;20083;-78
2021/12/21 03:15:23;;;;;;;1.30;1.02;;;-14.30;82.50;;;;;;5054437;28;20032;-79
2021/12/21 03:17:50;;;;;;;2.15;1.85;;;-14.30;83.00;;;;;;5054187;28;20052;-79
2021/12/21 03:20:17;;;;;;;3.47;1.90;;;-14.30;82.60;;;;;;5053970;28;20029;-78
2021/12/21 03:22:43;;;;;;;2.78;1.80;;;-14.30;82.30;;;;;;5054164;28;20050;-78
2021/12/21 03:25:09;;;;;;;2.03;1.43;;;-14.20;83.00;;;;;;5053418;28;20033;-77
2021/12/21 03:27:35;;;;;;;2.85;2.20;;;-14.20;83.30;;;;;;5053815;28;20032;-78
2021/12/21 03:30:02;;;;;;;2.28;1.90;;;-14.20;83.80;;;;;;5052841;28;20071;-80
2021/12/21 03:32:27;;;;;;;3.75;1.98;;;-14.10;84.00;;;;;;5052930;28;20405;-83
2021/12/21 03:34:53;;;;;;;1.38;1.35;;;-14.10;84.00;;;;;;5053619;28;20113;-80
2021/12/21 03:37:19;;;;;;;5.75;1.67;;;-14.10;84.00;;;;;;5053620;28;20511;-80
2021/12/21 03:39:46;;;;;;;3.27;1.87;;;-14.00;84.60;;;;;;5053683;28;20029;-78
2021/12/21 03:42:14;;;;;;;2.55;2.05;;;-14.00;83.60;;;;;;5054294;28;20049;-78
2021/12/21 03:44:41;;;;;;;3.88;2.38;;;-14.10;82.60;;;;;;5053036;28;20125;-78
2021/12/21 03:47:10;;;;;;;3.47;2.03;;;-14.10;82.90;;;;;;5047145;28;20057;-77
2021/12/21 03:52:18;;;;;;;2.17;1.48;;;-14.20;81.20;;;;;;5053255;28;20029;-79
2021/12/21 03:54:46;;;;;;;1.52;1.40;;;-14.20;81.80;;;;;;5053700;28;20446;-80
2021/12/21 03:57:13;;;;;;;2.60;2.40;;;-14.20;82.00;;;;;;5039708;28;20431;-77
2021/12/21 03:59:41;;;;;;;2.30;2.03;;;-14.20;82.50;;;;;;5053427;28;20025;-76
2021/12/21 04:02:08;;;;;;;3.08;1.90;;;-14.20;83.10;;;;;;5053775;28;20033;-78
2021/12/21 04:04:34;;;;;;;;;;;-14.20;83.70;;;;;;5054304;28;20078;-77
2021/12/21 04:07:00;;;;;;;3.08;2.10;;;-14.10;83.70;;;;;;5054804;28;19905;-79
2021/12/21 04:09:25;;;;;;;2.07;1.30;;;-14.10;83.70;;;;;;5044669;28;20498;-82
2021/12/21 04:11:51;;;;;;;5.97;2.33;;;-14.10;83.70;;;;;;5055928;28;20028;-79
2021/12/21 04:14:18;;;;;;;5.55;1.83;;;-14.00;83.60;;;;;;5053942;28;20060;-78
2021/12/21 04:16:44;;;;;;;2.72;2.10;;;-14.00;83.20;;;;;;5052267;28;20028;-79
2021/12/21 04:19:12;;;;;;;2.40;1.03;;;-14.00;83.10;;;;;;5053271;28;20028;-77
2021/12/21 04:21:38;;;;;;;4.22;2.13;;;-14.00;82.80;;;;;;5051699;28;20032;-79
2021/12/21 04:24:04;;;;;;;1.57;1.47;;;-14.00;82.60;;;;;;5053613;28;20021;-79
2021/12/21 04:26:30;;;;;;;3.00;1.53;;;-14.00;82.70;;;;;;5053224;28;20071;-79
2021/12/21 04:28:55;;;;;;;2.90;2.42;;;-14.00;82.80;;;;;;5053015;28;20032;-79
2021/12/21 04:31:21;;;;;;;6.32;2.35;;;-13.90;83.00;;;;;;5052646;28;20100;-81
2021/12/21 04:33:47;;;;;;;4.32;1.73;;;-13.90;83.70;;;;;;5052877;28;20056;-77
2021/12/21 04:36:14;;;;;;;3.10;2.80;;;-13.90;83.80;;;;;;5053331;28;20033;-79
2021/12/21 04:38:44;;;;;;;4.28;3.25;;;-13.90;84.10;;;;;;5056932;28;20021;-78
2021/12/21 04:43:38;;;;;;;4.13;2.85;;;-13.90;83.40;;;;;;5053260;28;20034;-80
2021/12/21 04:46:04;;;;;;;6.03;4.78;;;-13.90;83.70;;;;;;5049136;28;20033;-76
2021/12/21 04:48:30;;;;;;;3.45;2.22;;;-13.90;83.40;;;;;;5057140;28;20021;-80
2021/12/21 04:50:56;;;;;;;6.32;4.82;;;-13.90;83.50;;;;;;5046645;28;20402;-79
2021/12/21 04:53:22;;;;;;;13.77;4.78;;;-13.90;83.70;;;;;;5051571;28;20420;-79
2021/12/21 04:55:48;;;;;;;7.22;3.95;;;-13.90;83.20;;;;;;5056379;28;20028;-77
2021/12/21 04:58:14;;;;;;;4.25;3.60;;;-14.00;83.10;;;;;;5056211;28;20055;-80
2021/12/21 05:00:40;;;;;;;4.73;4.23;;;-14.00;83.00;;;;;;5056384;28;20072;-79
2021/12/21 05:03:07;;;;;;;3.17;2.75;;;-14.00;83.50;;;;;;5055198;28;20029;-79
2021/12/21 05:05:33;;;;;;;8.18;6.15;;;-14.00;83.70;;;;;;5056947;28;20021;-81
2021/12/21 05:08:10;;;;;;;5.88;4.22;;;-14.00;83.00;;;;;;5056928;28;20603;-79
2021/12/21 05:10:45;;;;;;;8.32;5.38;;;-14.00;82.40;;;;;;5055570;28;20041;-81
2021/12/21 05:13:12;;;;;;;5.32;4.10;;;-14.10;82.00;;;;;;5056290;28;20386;-79
2021/12/21 05:15:37;;;;;;;6.22;3.60;;;-14.20;81.50;;;;;;5056738;28;20053;-79
2021/12/21 05:18:03;;;;;;;3.43;2.90;;;-14.30;80.90;;;;;;5055748;28;20474;-78
2021/12/21 05:20:29;;;;;;;5.47;3.97;;;-14.30;81.40;;;;;;5056589;28;20494;-81
2021/12/21 05:22:55;;;;;;;5.47;3.80;;;-14.30;82.50;;;;;;5055488;28;20029;-79
2021/12/21 05:25:21;;;;;;;4.87;3.77;;;-14.30;83.10;;;;;;5059647;28;20025;-82
2021/12/21 05:27:46;;;;;;;8.07;4.63;;;-14.30;83.10;;;;;;5059596;28;20112;-80
2021/12/21 05:30:13;;;;;;;6.37;3.97;;;-14.30;83.30;;;;;;5058074;28;20037;-79
2021/12/21 05:32:40;;;;;;;4.88;3.22;;;-14.20;83.60;;;;;;5045734;28;20035;-79
2021/12/21 05:35:07;;;;;;;6.03;3.97;;;-14.20;83.40;;;;;;5056944;28;20067;-80
2021/12/21 05:37:34;;;;;;;6.97;3.70;;;-14.20;83.90;;;;;;5056094;28;20017;-80
2021/12/21 05:40:13;;;;;;;3.90;3.42;;;-14.20;83.50;;;;;;5056112;28;20461;-81
2021/12/21 05:42:40;;;;;;;9.52;5.38;;;-14.20;82.90;;;;;;5053945;28;20147;-79
2021/12/21 05:45:07;;;;;;;6.22;3.83;;;-14.20;82.90;;;;;;5055317;28;20074;-81
2021/12/21 05:47:34;;;;;;;6.07;3.28;;;-14.20;82.90;;;;;;5038847;28;20088;-79
2021/12/21 05:49:59;;;;;;;7.82;5.07;;;-14.10;83.40;;;;;;5046195;28;20482;-80
2021/12/21 05:52:25;;;;;;;4.57;3.45;;;-14.10;83.90;;;;;;5042368;28;20048;-81
2021/12/21 05:54:51;;;;;;;9.70;2.53;;;-14.10;83.10;;;;;;5056289;28;20025;-83
2021/12/21 05:57:17;;;;;;;7.00;4.30;;;-14.10;83.60;;;;;;5040507;28;20025;-81
2021/12/21 05:59:43;;;;;;;7.72;5.13;;;-14.10;83.70;;;;;;5054645;28;20032;-80
2021/12/21 06:02:09;;;;;;;8.13;6.40;;;-14.00;83.50;;;;;;5041822;28;20021;-83
2021/12/21 06:04:35;;;;;;;4.93;2.83;;;-14.00;82.70;;;;;;5054733;28;20029;-81
2021/12/21 06:07:01;;;;;;;7.50;4.73;;;-14.10;82.60;;;;;;5054967;28;20052;-80
2021/12/21 06:09:29;;;;;;;3.27;2.43;;;-14.10;82.90;;;;;;5055320;28;20047;-79
2021/12/21 06:22:45;;;;;;;7.20;2.95;;;-14.30;82.80;;;;;;5058090;28;20388;-79
2021/12/21 06:27:52;;;;;;;7.07;3.72;;;-14.30;83.70;;;;;;5056230;28;20104;-79
2021/12/21 06:30:18;;;;;;;7.00;3.00;;;-14.30;83.60;;;;;;5055604;28;20119;-79
2021/12/21 06:32:44;;;;;;;3.00;2.63;;;-14.30;83.10;;;;;;5054053;28;20020;-81
2021/12/21 06:35:11;;;;;;;8.80;4.10;;;-14.30;83.10;;;;;;5055808;28;20044;-81
2021/12/21 06:37:40;;;;;;;13.90;3.70;;;-14.30;83.30;;;;;;5055638;28;20278;-81
2021/12/21 06:40:07;;;;;;;6.50;3.95;;;-14.30;83.80;;;;;;5055063;28;20105;-80
2021/12/21 06:42:33;;;;;;;8.10;4.28;;;-14.30;83.80;;;;;;5040046;28;20410;-78
2021/12/21 06:45:00;;;;;;;6.28;3.92;;;-14.30;83.60;;;;;;5038274;28;20024;-81
2021/12/21 06:52:55;;;;;;;5.28;2.70;;;-14.20;83.70;;;;;;5041344;28;20032;-80
2021/12/21 06:55:21;;;;;;;6.88;3.33;;;-14.20;83.80;;;;;;5044631;28;20033;-80
2021/12/21 06:57:47;;;;;;;5.88;4.43;;;-14.10;83.80;;;;;;5051069;28;20028;-82
2021/12/21 07:00:15;;;;;;;6.10;4.23;;;-14.10;82.70;;;;;;5043120;28;20096;-83
2021/12/21 07:02:41;;;;;;;3.00;1.98;;;-14.10;82.70;;;;;;5056523;28;20020;-82
2021/12/21 07:05:08;;;;;;;6.55;2.55;;;-14.10;83.00;;;;;;5047672;28;20438;-80
2021/12/21 07:07:34;;;;;;;4.22;2.50;;;-14.00;83.30;;;;;;5035489;28;20390;-80
2021/12/21 07:10:04;;;;;;;5.97;3.20;;;-14.00;83.70;;;;;;5038205;28;20123;-81
2021/12/21 07:18:24;;;;;;;4.00;2.17;;;-13.80;84.00;;;;;;5035095;28;20035;-81
2021/12/21 07:20:50;;;;;;;5.35;3.03;;;-13.70;83.00;;;;;;5034564;28;20022;-80
2021/12/21 07:23:16;;;;;;;5.45;3.45;;;-13.70;83.10;;;;;;5034448;28;20072;-78
2021/12/21 07:25:42;;;;;;;2.80;2.30;;;-13.70;83.40;;;;;;5033852;28;20494;-78
2021/12/21 07:28:07;;;;;;;7.20;3.60;;;-13.80;82.40;;;;;;5037478;28;20100;-80
2021/12/21 07:30:33;;;;;;;4.83;3.23;;;-13.70;82.80;;;;;;5034090;28;20029;-81
2021/12/21 07:32:59;;;;;;;6.70;3.23;;;-13.70;83.10;;;;;;5034655;28;20111;-79
2021/12/21 07:35:25;;;;;;;2.90;2.45;;;-13.70;83.10;;;;;;5035513;28;20616;-83
2021/12/21 07:37:51;;;;;;;5.18;2.90;;;-13.70;82.60;;;;;;5034502;28;20025;-79
2021/12/21 07:40:17;;;;;;;9.60;4.68;;;-13.70;82.50;;;;;;5043079;28;20409;-79
2021/12/21 07:42:43;;;;;;;7.55;3.03;;;-13.80;81.30;;;;;;5033611;28;20056;-77
2021/12/21 07:45:09;;;;;;;3.47;1.95;;;-13.80;81.10;;;;;;5033787;28;20029;-79
2021/12/21 07:47:35;;;;;;;3.03;2.15;;;-13.80;81.60;;;;;;5033829;28;20116;-81
2021/12/21 07:50:02;;;;;;;11.40;3.17;;;-13.80;81.90;;;;;;5032738;28;20120;-80
2021/12/21 07:52:28;;;;;;;5.40;3.70;;;-13.80;82.70;;;;;;5033864;28;20013;-81
2021/12/21 07:54:54;;;;;;;7.57;4.77;;;-13.70;81.90;;;;;;5034637;28;20047;-80
2021/12/21 07:57:20;;;;;;;5.65;4.43;;;-13.70;82.20;;;;;;5032660;28;20030;-79
2021/12/21 07:59:46;;;;;;;5.80;2.75;;;-13.70;82.60;;;;;;5033209;28;20033;-80
2021/12/21 08:02:13;;;;;;;7.35;3.08;;;-13.60;82.90;;;;;;5033524;28;20021;-78
2021/12/21 08:04:41;;;;;;;6.68;2.70;;;-13.60;82.80;;;;;;5034453;28;20112;-78
2021/12/21 08:07:12;;;;;;;4.07;3.38;;;-13.60;82.70;;;;;;5034391;28;20025;-80
2021/12/21 08:09:45;;;;;;;4.10;3.22;;;-13.50;83.10;;;;;;5033856;28;20063;-79
2021/12/21 08:14:38;;;;;;;5.97;2.65;;;-13.50;81.60;;;;;;5055030;28;20021;-79
2021/12/21 08:17:04;;;;;;;3.15;2.85;;;-13.50;81.90;;;;;;5054298;28;20103;-80
2021/12/21 08:19:29;;;;;;;3.20;2.20;;;-13.50;81.80;;;;;;5054679;28;20028;-81
2021/12/21 08:21:55;;;;;;;6.68;3.35;;;-13.50;81.80;;;;;;5053163;28;20029;-82
2021/12/21 08:24:21;;;;;;;7.05;3.28;;;-13.50;81.90;;;;;;5054189;28;20098;-79
2021/12/21 08:26:47;;;;;;;9.90;3.55;;;-13.50;81.60;;;;;;5055159;28;20025;-80
2021/12/21 08:29:13;;;;;;;2.45;2.25;;;-13.50;81.10;;;;;;5059262;28;20036;-78
2021/12/21 08:31:39;;;;;;;7.43;3.33;;;-13.50;81.60;;;;;;5057831;28;20196;-80
2021/12/21 08:34:04;;;;;;;4.03;3.03;;;-13.50;81.80;;;;;;5056636;28;20025;-80
2021/12/21 08:36:31;;;;;;;3.10;2.80;;;-13.50;81.90;;;;;;5055232;28;20029;-78
2021/12/21 08:38:57;;;;;;;4.93;2.90;;;-13.50;82.50;;;;;;5055316;28;20025;-81
2021/12/21 08:41:24;;;;;;;3.65;2.30;;;-13.40;82.10;;;;;;5055564;28;20129;-78
2021/12/21 08:43:51;;;;;;;6.70;2.80;;;-13.40;81.90;;;;;;5054705;28;20492;-77
2021/12/21 08:46:17;;;;;;;8.13;3.83;;;-13.40;82.00;;;;;;5054154;28;20082;-80
2021/12/21 08:48:43;;;;;;;5.57;2.47;;;-13.40;81.80;;;;;;5054117;28;20108;-79
2021/12/21 08:51:09;;;;;;;5.55;3.50;;;-13.40;82.10;;;;;;5053999;28;20033;-80
2021/12/21 08:53:38;;;;;;;6.60;3.50;;;-13.40;81.90;;;;;;5054542;28;20478;-80
2021/12/21 08:56:04;;;;;;;8.98;3.85;;;-13.40;82.10;;;;;;5053890;28;20501;-79
2021/12/21 08:58:30;;;;;;;3.30;2.30;;;-13.40;80.90;;;;;;5054707;28;20386;-81
2021/12/21 09:00:56;;;;;;;3.25;2.58;;;-13.50;80.10;;;;;;5053902;28;20028;-81
2021/12/21 09:03:23;;;;;;;3.25;2.92;;;-13.50;79.60;;;;;;5054294;28;20025;-80
2021/12/21 09:05:49;;;;;;;;;;;-13.50;79.90;;;;;;5054426;28;20017;-82
2021/12/21 09:08:14;;;;;;;2.97;2.13;;;-13.50;80.00;;;;;;5053658;28;20019;-80
2021/12/21 09:10:40;;;;;;;5.28;2.80;;;-13.50;79.70;;;;;;5052572;28;20290;-82
2021/12/21 09:13:09;;;;;;;3.93;2.43;;;-13.50;80.40;;;;;;5053516;28;20492;-80
2021/12/21 09:15:35;;;;;;;6.63;3.88;;;-13.50;80.20;;;;;;5054193;28;20021;-79
2021/12/21 09:18:01;;;;;;;5.90;3.60;;;-13.50;81.00;;;;;;5053755;28;20013;-77
2021/12/21 09:20:28;;;;;;;5.95;3.08;;;-13.40;81.30;;;;;;5052422;28;20032;-79
2021/12/21 09:22:55;;;;;;;5.90;2.92;;;-13.40;81.20;;;;;;5055206;28;20032;-81
2021/12/21 09:25:23;;;;;;;4.78;2.70;;;-13.30;80.50;;;;;;5057304;28;20489;-81
2021/12/21 09:27:49;;;;;;;4.18;3.28;;;-13.40;80.40;;;;;;5057393;28;20096;-82
2021/12/21 09:30:18;;;;;;;4.88;2.90;;;-13.30;80.20;;;;;;5058187;28;20033;-80
2021/12/21 09:32:44;;;;;;;7.45;3.30;;;-13.30;80.60;;;;;;5056208;28;20052;-79
2021/12/21 09:35:10;;;;;;;5.27;3.00;;;-13.30;81.10;;;;;;5055039;28;20040;-81
2021/12/21 09:37:38;;;;;;;10.73;3.00;;;-13.20;81.60;;;;;;5048709;28;20655;-81
2021/12/21 09:40:09;;;;;;;5.78;4.07;;;-13.10;82.30;;;;;;5036457;28;20033;-78
2021/12/21 09:42:35;;;;;;;6.72;4.15;;;-13.10;82.20;;;;;;5036499;28;20482;-80
2021/12/21 09:45:01;;;;;;;5.20;3.20;;;-13.00;81.80;;;;;;5036619;28;20053;-77
2021/12/21 09:47:27;;;;;;;6.05;2.97;;;-13.00;80.40;;;;;;5035421;28;20109;-81
2021/12/21 09:49:54;;;;;;;10.15;3.15;;;-13.00;79.70;;;;;;5035402;28;20091;-80
2021/12/21 09:52:29;;;;;;;4.53;2.67;;;-13.00;79.20;;;;;;5036731;28;20383;-82
2021/12/21 09:54:55;;;;;;;4.57;3.08;;;-13.10;79.70;;;;;;5035232;28;20032;-81
2021/12/21 09:57:21;;;;;;;8.77;3.75;;;-13.10;80.40;;;;;;5036356;28;20395;-81
2021/12/21 09:59:49;;;;;;;6.07;3.00;;;-13.10;81.10;;;;;;5036522;28;20026;-79
2021/12/21 10:02:21;;;;;;;6.90;4.13;;;-13.10;80.60;;;;;;5037014;28;20022;-80
2021/12/21 10:05:03;;;;;;;11.48;5.75;;;-13.20;80.80;;;;;;5036255;28;20548;-82
2021/12/21 10:07:29;;;;;;;4.35;2.33;;;-13.10;81.00;;;;;;5036599;28;20047;-81
2021/12/21 10:10:05;;;;;;;9.15;4.40;;;-13.10;81.10;;;;;;5039156;28;20527;-80
2021/12/21 10:12:38;;;;;;;7.28;2.97;;;-13.10;81.00;;;;;;5056151;28;20021;-77
2021/12/21 10:15:39;;;;;;;5.63;3.55;;;-13.10;81.40;;;;;;5054773;28;20521;-79
2021/12/21 10:18:05;;;;;;;6.18;3.97;;;-13.10;81.60;;;;;;5054686;28;20175;-80
2021/12/21 10:20:43;;;;;;;8.80;3.42;;;-13.10;82.30;;;;;;5056861;28;20071;-79
2021/12/21 10:23:10;;;;;;;9.15;4.15;;;-13.00;82.20;;;;;;5056359;28;20025;-80
2021/12/21 10:25:48;;;;;;;;;;;-13.00;81.30;;;;;;5056460;28;20025;-79
2021/12/21 10:28:30;;;;;;;4.50;3.30;;;-13.00;81.30;;;;;;5054293;28;19905;-78
2021/12/21 10:30:58;;;;;;;6.53;4.43;;;-13.10;80.80;;;;;;5056022;28;20032;-81
2021/12/21 10:33:26;;;;;;;2.58;2.38;;;-13.10;80.60;;;;;;5055027;28;20032;-81
2021/12/21 10:35:57;;;;;;;4.93;3.95;;;-13.10;81.10;;;;;;5052156;28;20024;-80
2021/12/21 10:38:52;;;;;;;4.97;3.13;;;-13.20;81.70;;;;;;5036314;28;20051;-81
2021/12/21 10:41:26;;;;;;;7.80;3.05;;;-13.20;82.00;;;;;;5034446;28;20022;-79
2021/12/21 10:43:59;;;;;;;5.18;2.78;;;-13.20;82.50;;;;;;5035565;28;20037;-80
2021/12/21 10:46:32;;;;;;;6.07;4.03;;;-13.10;82.90;;;;;;5037815;28;20025;-81
2021/12/21 10:49:31;;;;;;;4.93;2.28;;;-13.10;82.70;;;;;;5037454;28;20084;-82
2021/12/21 10:51:58;;;;;;;5.70;3.63;;;-13.20;81.80;;;;;;5034899;28;20033;-80
2021/12/21 10:54:31;;;;;;;;;;;-13.20;81.80;;;;;;5036723;28;20030;-81
2021/12/21 10:57:10;;;;;;;6.60;3.42;;;-13.20;81.40;;;;;;5034998;28;19912;-80
2021/12/21 10:59:39;;;;;;;3.72;2.70;;;-13.30;80.70;;;;;;5035908;28;20014;-79
2021/12/21 11:02:15;;;;;;;5.18;3.35;;;-13.40;80.90;;;;;;5035712;28;20036;-80
2021/12/21 11:04:44;;;;;;;4.67;3.57;;;-13.40;81.30;;;;;;5036225;28;20032;-79
2021/12/21 11:07:20;;;;;;;6.28;3.45;;;-13.40;80.60;;;;;;5036899;28;20040;-80
2021/12/21 11:10:09;;;;;;;8.95;4.63;;;-13.50;81.00;;;;;;5038668;28;20065;-80
2021/12/21 11:13:12;;;;;;;5.55;3.45;;;-13.40;81.30;;;;;;5054680;28;20102;-80
2021/12/21 11:15:43;;;;;;;5.35;3.50;;;-13.40;81.70;;;;;;5052990;28;20033;-83
2021/12/21 11:18:16;;;;;;;7.13;3.25;;;-13.40;80.80;;;;;;5036665;28;20029;-83
2021/12/21 11:20:45;;;;;;;7.72;3.65;;;-13.50;80.80;;;;;;5054042;28;20029;-78
2021/12/21 11:23:19;;;;;;;5.10;4.13;;;-13.50;81.60;;;;;;5053332;28;20041;-79
2021/12/21 11:25:48;;;;;;;4.75;3.00;;;-13.50;82.10;;;;;;5053903;28;20032;-82
2021/12/21 11:28:18;;;;;;;4.72;3.33;;;-13.40;81.90;;;;;;5053605;28;20033;-80
2021/12/21 11:30:44;;;;;;;9.63;4.38;;;-13.50;81.60;;;;;;5055418;28;20045;-78
2021/12/21 11:33:11;;;;;;;6.90;3.17;;;-13.50;81.70;;;;;;5058312;28;20028;-80
2021/12/21 11:38:09;;;;;;;4.47;2.67;;;-13.50;81.10;;;;;;5053060;28;20512;-80
2021/12/21 11:40:43;;;;;;;2.72;2.17;;;-13.60;81.50;;;;;;5052416;28;20032;-80
2021/12/21 11:43:33;;;;;;;6.10;3.20;;;-13.60;81.50;;;;;;5035610;28;20072;-79
2021/12/21 11:46:09;;;;;;;5.80;2.92;;;-13.60;81.80;;;;;;5052057;28;20029;-78
2021/12/21 11:48:59;;;;;;;10.07;3.45;;;-13.60;82.20;;;;;;5050296;28;20064;-79
2021/12/21 11:51:27;;;;;;;5.32;3.83;;;-13.60;82.20;;;;;;5035600;28;20593;-80
2021/12/21 11:53:55;;;;;;;5.35;3.17;;;-13.60;82.60;;;;;;5017406;28;20037;-80
2021/12/21 11:56:25;;;;;;;8.43;4.00;;;-13.60;82.70;;;;;;5033287;28;20049;-80
2021/12/21 11:58:53;;;;;;;9.23;4.75;;;-13.60;82.90;;;;;;5034139;28;20025;-80
2021/12/21 12:01:23;;;;;;;6.60;3.67;;;-13.60;83.40;;;;;;5034833;28;20109;-80
2021/12/21 12:04:08;;;;;;;7.43;5.25;;;-13.60;82.70;;;;;;5016907;28;20376;-81
2021/12/21 12:06:50;;;;;;;8.30;2.92;;;-13.70;82.10;;;;;;5032457;28;20087;-79
2021/12/21 12:09:30;;;;;;;4.50;2.83;;;-13.70;82.60;;;;;;5033732;28;20063;-79
2021/12/21 12:12:13;;;;;;;3.67;3.22;;;-13.70;82.70;;;;;;5053168;28;20029;-79
2021/12/21 12:14:44;;;;;;;8.18;3.78;;;-13.70;82.70;;;;;;5052381;28;20028;-77
2021/12/21 12:17:16;;;;;;;7.15;4.35;;;-13.80;82.30;;;;;;5053038;28;20017;-78
2021/12/21 12:19:49;;;;;;;5.38;4.10;;;-13.80;82.40;;;;;;5053557;28;20417;-79
2021/12/21 12:22:15;;;;;;;7.28;4.35;;;-13.90;82.70;;;;;;5054109;28;20430;-80
2021/12/21 12:24:57;;;;;;;5.80;3.30;;;-13.90;82.80;;;;;;5054516;28;20032;-79
2021/12/21 12:27:26;;;;;;;7.35;4.57;;;-13.90;83.10;;;;;;5054829;28;20017;-79
2021/12/21 12:29:58;;;;;;;7.90;3.33;;;-13.90;83.70;;;;;;5054086;28;20037;-80
2021/12/21 12:32:35;;;;;;;7.60;3.88;;;-13.80;83.80;;;;;;5054336;28;20021;-80
2021/12/21 12:35:03;;;;;;;9.32;4.75;;;-13.80;84.10;;;;;;5039921;28;20025;-81
2021/12/21 12:37:29;;;;;;;11.75;4.05;;;-13.80;84.10;;;;;;5034621;28;20029;-80
2021/12/21 12:40:07;;;;;;;11.27;4.75;;;-13.80;83.40;;;;;;5034758;28;20041;-81
2021/12/21 12:42:34;;;;;;;5.07;2.65;;;-13.90;83.10;;;;;;5032870;28;20050;-81
2021/12/21 12:45:15;;;;;;;7.57;3.38;;;-13.90;83.10;;;;;;5033673;28;20026;-80
2021/12/21 12:47:46;;;;;;;6.93;4.30;;;-13.90;83.10;;;;;;5032765;28;20018;-81
2021/12/21 12:50:21;;;;;;;8.82;4.05;;;-13.90;83.60;;;;;;5034008;28;20033;-81
2021/12/21 12:52:54;;;;;;;7.13;4.65;;;-13.90;84.00;;;;;;5032982;28;20033;-81
2021/12/21 12:55:22;;;;;;;5.88;3.88;;;-14.00;83.20;;;;;;5034385;28;20470;-80
2021/12/21 12:57:58;;;;;;;8.45;4.13;;;-14.00;83.20;;;;;;5037133;28;20018;-80
2021/12/21 13:00:33;;;;;;;4.35;3.28;;;-14.00;83.90;;;;;;5040591;28;20029;-78
2021/12/21 13:03:03;;;;;;;7.25;3.50;;;-14.00;84.40;;;;;;5039338;28;20034;-81
2021/12/21 13:05:36;;;;;;;5.10;3.45;;;-14.00;84.20;;;;;;5037140;28;20552;-84
2021/12/21 13:08:10;;;;;;;6.28;4.45;;;-14.10;83.90;;;;;;5036195;28;20421;-81
2021/12/21 13:10:44;;;;;;;3.60;3.28;;;-14.10;84.10;;;;;;5046799;28;20037;-82
2021/12/21 13:13:10;;;;;;;7.38;3.88;;;-14.10;84.30;;;;;;5056021;28;20115;-81
2021/12/21 13:15:46;;;;;;;5.07;2.90;;;-14.00;84.10;;;;;;5055969;28;20410;-80
2021/12/21 13:18:13;;;;;;;5.05;3.15;;;-14.00;84.10;;;;;;5055941;28;20028;-81
2021/12/21 13:20:41;;;;;;;7.93;3.50;;;-14.00;84.20;;;;;;5057159;28;20024;-79
2021/12/21 13:23:22;;;;;;;8.07;4.32;;;-14.10;84.20;;;;;;5055712;28;20036;-81
2021/12/21 13:26:04;;;;;;;4.18;2.60;;;-14.00;84.60;;;;;;5057856;28;20021;-81
2021/12/21 13:28:46;;;;;;;5.50;3.08;;;-14.10;84.50;;;;;;5055950;28;20025;-80
2021/12/21 13:31:17;;;;;;;8.15;3.80;;;-14.10;84.40;;;;;;5057013;28;20061;-82
2021/12/21 13:33:43;;;;;;;7.25;4.38;;;-14.10;83.80;;;;;;5044740;28;20077;-82
2021/12/21 13:36:09;;;;;;;7.60;4.03;;;-14.10;83.90;;;;;;5036774;28;20119;-79
2021/12/21 13:38:37;;;;;;;6.03;3.28;;;-14.10;84.50;;;;;;5036101;28;20040;-79
2021/12/21 13:41:08;;;;;;;9.07;6.30;;;-14.10;85.00;;;;;;5035329;28;20064;-83
2021/12/21 13:43:36;;;;;;;10.40;4.50;;;-14.10;84.90;;;;;;5036510;28;20035;-81
2021/12/21 13:46:05;;;;;;;7.55;5.68;;;-14.00;84.70;;;;;;5036616;28;20021;-78
2021/12/21 13:48:31;;;;;;;4.45;3.10;;;-14.00;84.70;;;;;;5036829;28;20018;-82
2021/12/21 13:51:11;;;;;;;6.88;3.28;;;-14.00;85.00;;;;;;5035081;28;20038;-80
2021/12/21 13:53:43;;;;;;;4.63;3.40;;;-14.00;84.70;;;;;;5036226;28;20390;-79
2021/12/21 13:56:15;;;;;;;7.65;4.30;;;-14.00;84.90;;;;;;5036605;28;20528;-79
2021/12/21 13:58:41;;;;;;;8.52;4.13;;;-14.00;84.60;;;;;;5036827;28;20376;-78
2021/12/21 14:01:07;;;;;;;7.72;4.40;;;-14.10;84.70;;;;;;5035596;28;20021;-80
2021/12/21 14:03:38;;;;;;;8.17;3.80;;;-14.10;84.60;;;;;;5036575;28;20083;-79
2021/12/21 14:06:10;;;;;;;8.60;4.72;;;-14.10;84.90;;;;;;5036931;28;20018;-80
2021/12/21 14:08:38;;;;;;;8.73;5.38;;;-14.10;85.10;;;;;;5036676;28;20028;-80